Louisville, NE (68037)

2:26 AM CDT on August 28, 2014 (GMT -0500)
Prairie View Estates | Change Station
CLOSE
Current Station
Personal Weather Station
Location: Louisville, NE
Elevation: 1027 ft
Nearby Weather Stations
Active Advisory: Flash Flood Watch

Elev 1027 ft 41.04 °N, 96.09 °W | Updated 8 minutes ago

Rain
Rain
70.5 °F
Feels Like 70.5 °F
N
8.0
Wind Variable Wind from East
Gusts 10.0 mph

Today
High -- | Low -- °F
--% Chance of Precip.
Yesterday
High -- | Low -- °F
Precip. -- in
6:47 AM 8:03 PM
Waxing Crescent, 7% visible
Pressure 30.03 in
Visibility 10.0 miles
Clouds Mostly Cloudy 900 ft
Overcast 2200 ft
Dew Point 69 °F
Humidity 96%
Rainfall 0.36 in
Snow Depth Not available.
UV 0 out of 12
Pollen 2.00 out of 12
Air Quality Not available.
Flu Activity Not available.
METAR KPMV 280715Z AUTO 00000KT 10SM -RA BKN009 OVC022 22/20 A3003 RMK AO2 LTG DSNT SE THRU W T02180204

More Conditions Fewer Conditions

Pressure 30.03 in
Visibility 10.0 miles
Clouds Mostly Cloudy 900 ft
Overcast 2200 ft
Dew Point 69 °F
Humidity 96%
Rainfall 0.36 in
Snow Depth Not available.
UV 0 out of 12
Pollen 2.00 out of 12
Air Quality Not available.
Flu Activity Not available.
METAR KPMV 280715Z AUTO 00000KT 10SM -RA BKN009 OVC022 22/20 A3003 RMK AO2 LTG DSNT SE THRU W T02180204

More Conditions Fewer Conditions

10-Day Weather Forecast

Almanac

Astronomy

Aug. 28, 2014 Rise Set
Actual Time 6:47 AM CDT 8:03 PM CDT
Civil Twilight 6:18 AM CDT 8:31 PM CDT
Nautical Twilight 5:44 AM CDT 9:05 PM CDT
Astronomical Twilight 5:08 AM CDT 9:41 PM CDT
Moon 9:42 AM CDT 9:26 PM CDT
Length of Visible Light 14h 13m
Length of Day
13h 16m
Tomorrow will be 2m 36s shorter.
Waxing Crescent, 7% of the Moon is Illuminated
Today
Waxing Crescent
Sep 2
First Quarter
Sep 8
Full
Sep 15
Last Quarter
Sep 24
New

Today's Extremes

State Highs State Lows

Community

WunderPhotos

Upload Photos

1,747,912 photos uploaded!

Nearby

Snow Depth

Station Depth Elevation
No new snow has been reported.

Earthquake Activity

City Distance Mag. Time & Date
No recent earthquake activity has been reported nearby.
Minimum magnitude displayed is 2.5.

Coastal Water Temperatures

Place Temperature
No Stations Reporting

Nearby Weather Stations